Terminal Aerodrome Forecast
Issued by NWS Cleveland, OH

Current Version | Previous Version | Text Only | Print | Product List | Glossary On
Versions: 1 2 3 4 5 6 7 8 9 10 11 12 13 14 15 16 17 18 19 20 21 22 23 24 25 26
255
FTUS41 KCLE 242336
TAFCLE
TAF
KCLE 242336Z 2500/2606 20008KT P6SM SCT250
     FM251000 21006KT P6SM VCTS BKN035CB OVC120
     FM251500 26010KT P6SM SCT035 BKN100
     FM252200 30006KT P6SM SCT045=

USA.gov is the U.S. government's official web portal to all federal, state and local government web resources and services.